Ana Sayfa
METAR-TAF:

METAR-TAF

Havaalanları :

Gaithersburg, Maryland, Amerika Birleşik Devletleri

Enlem: 39-10-06N, Boylam: 077-09-58W, yükseklik: 164 m

Güncel hava durumu gözlemi

Rapor saat 05:56 UTC de 25 dakika önce yapıldı.
Sakin rüzgar
Sıcaklık -10°C
Nem 72%
Basınç 1031 hPa
Görüş mesafesi: 16.1 km
Açık gökyüzü

METAR: KGAI 220556Z AUTO 00000KT 10SM CLR M10/M14 A3044 RMK AO2 SLP332 T11001144 11067 21100 58017 FZRANO

Saat: 01:21 (06:21 UTC)


TAF: eksik

4.000'den fazla havaalanı için hava durumu gözlemleri ve tahminleri (METAR ve TAF raporları).

Kullanılabilir istasyonlar harita üzerinde sarı ve kırmızı noktalarla gösterilir.

İstasyonun adını görmek için fareyi noktanın üzerinde gezdirin.

Sonrasında hava gözlem ve tahminlerini görmek için tıklayın.

Haritayı değiştirmek için: yaklaştırmak için siyah artı işaretli yeşil düğmeye ve uzaklaştırmak için de eksi işaretli düğmeye hızla tıklayın; bitişik haritalar için yeşil okları kullanın.


METAR-TAF: